createdAt,value
2022-10-13T00:01:29.476Z,79.20
2022-10-13T00:05:11.466Z,79.30
2022-10-13T00:08:54.138Z,79.30
2022-10-13T00:12:39.871Z,79.50
2022-10-13T00:16:22.449Z,79.50
2022-10-13T00:20:05.873Z,80.90
2022-10-13T00:23:48.000Z,79.10
2022-10-13T00:27:29.874Z,79.30
2022-10-13T00:31:22.261Z,79.50
2022-10-13T00:35:04.312Z,80.80
2022-10-13T00:38:47.346Z,79.60
2022-10-13T00:42:29.278Z,79.70
2022-10-13T00:46:11.072Z,79.80
2022-10-13T00:49:55.036Z,79.80
2022-10-13T00:53:39.232Z,79.80
2022-10-13T00:57:21.195Z,80.00
2022-10-13T01:01:05.399Z,80.00
2022-10-13T01:04:48.102Z,80.10
2022-10-13T01:08:30.306Z,80.10
2022-10-13T01:12:36.963Z,80.30
2022-10-13T01:16:27.609Z,81.20
2022-10-13T01:20:50.565Z,81.20
2022-10-13T01:24:54.058Z,82.60
2022-10-13T01:28:51.106Z,80.60
2022-10-13T01:32:45.041Z,81.30
2022-10-13T01:36:51.445Z,82.20
2022-10-13T01:40:39.399Z,82.50
2022-10-13T01:44:43.558Z,81.50
2022-10-13T01:48:27.412Z,83.00
2022-10-13T01:52:17.145Z,80.80
2022-10-13T01:56:00.475Z,81.10
2022-10-13T01:59:42.374Z,81.00
2022-10-13T02:03:34.501Z,81.00
2022-10-13T02:07:35.267Z,81.90
2022-10-13T02:11:20.702Z,82.60
2022-10-13T02:15:04.440Z,81.10
2022-10-13T02:18:47.231Z,81.10
2022-10-13T02:22:33.931Z,81.10
2022-10-13T02:26:16.259Z,81.30
2022-10-13T02:29:58.254Z,81.30
2022-10-13T02:33:40.288Z,81.30
2022-10-13T02:37:22.240Z,81.50
2022-10-13T02:41:04.414Z,81.50
2022-10-13T02:44:46.292Z,81.50
2022-10-13T02:48:28.099Z,81.50
2022-10-13T02:52:09.916Z,81.40
2022-10-13T02:55:51.710Z,81.40
2022-10-13T02:59:33.751Z,81.50
2022-10-13T03:03:15.851Z,81.50
2022-10-13T03:06:57.760Z,81.50
2022-10-13T03:10:39.594Z,81.50
2022-10-13T03:14:21.479Z,81.60
2022-10-13T03:18:03.429Z,81.60
2022-10-13T03:21:45.456Z,81.70
2022-10-13T03:25:28.401Z,81.70
2022-10-13T03:29:18.226Z,81.70
2022-10-13T03:33:00.033Z,82.40
2022-10-13T03:36:41.956Z,81.80
2022-10-13T03:40:24.702Z,81.80
2022-10-13T03:44:07.888Z,81.80
2022-10-13T03:47:49.788Z,81.80
2022-10-13T03:51:31.890Z,81.80
2022-10-13T03:55:13.744Z,81.80
2022-10-13T03:58:58.003Z,81.80
2022-10-13T04:02:39.953Z,81.80
2022-10-13T04:06:23.242Z,81.90
2022-10-13T04:10:10.235Z,82.00
2022-10-13T04:13:53.504Z,82.00
2022-10-13T04:17:35.666Z,82.00
2022-10-13T04:21:17.593Z,81.90
2022-10-13T04:24:59.472Z,81.90
2022-10-13T04:28:42.820Z,81.90
2022-10-13T04:32:24.956Z,81.90
2022-10-13T04:36:09.289Z,81.80
2022-10-13T04:39:51.456Z,81.70
2022-10-13T04:43:34.129Z,81.70
2022-10-13T04:47:16.007Z,81.80
2022-10-13T04:51:09.167Z,81.90
2022-10-13T04:54:51.048Z,82.00
2022-10-13T04:58:33.215Z,81.80
2022-10-13T05:02:15.086Z,81.80
2022-10-13T05:05:56.934Z,81.90
2022-10-13T05:09:39.017Z,81.80
2022-10-13T05:13:20.905Z,81.80
2022-10-13T05:17:02.783Z,81.70
2022-10-13T05:20:44.725Z,81.70
2022-10-13T05:24:36.597Z,81.70
2022-10-13T05:28:18.597Z,81.70
2022-10-13T05:32:00.534Z,81.70
2022-10-13T05:35:42.396Z,81.60
2022-10-13T05:39:24.501Z,81.60
2022-10-13T05:43:06.362Z,81.60
2022-10-13T05:46:48.291Z,81.70
2022-10-13T05:50:30.361Z,81.80
2022-10-13T05:54:36.325Z,81.80
2022-10-13T05:58:18.528Z,82.30
2022-10-13T06:02:02.453Z,81.80
2022-10-13T06:05:47.526Z,81.80
2022-10-13T06:09:37.907Z,81.70
2022-10-13T06:13:19.850Z,81.80
2022-10-13T06:17:01.668Z,81.80
2022-10-13T06:20:43.758Z,81.80
2022-10-13T06:24:25.978Z,81.90
2022-10-13T06:28:07.989Z,81.90
2022-10-13T06:31:49.977Z,82.00
2022-10-13T06:35:31.817Z,81.90
2022-10-13T06:39:14.547Z,82.00
2022-10-13T06:42:56.407Z,82.00
2022-10-13T06:46:38.305Z,82.10
2022-10-13T06:50:20.886Z,82.10
2022-10-13T06:54:02.797Z,82.20
2022-10-13T06:57:44.706Z,82.20
2022-10-13T07:01:26.574Z,82.20
2022-10-13T07:05:08.813Z,82.20
2022-10-13T07:08:50.851Z,82.20
2022-10-13T07:12:35.256Z,82.20
2022-10-13T07:16:17.309Z,82.20
2022-10-13T07:20:01.337Z,82.20
2022-10-13T07:23:46.881Z,82.30
2022-10-13T07:27:28.797Z,82.20
2022-10-13T07:31:13.855Z,82.10
2022-10-13T07:34:55.738Z,82.10
2022-10-13T07:38:37.947Z,82.20
2022-10-13T07:42:20.069Z,82.20
2022-10-13T07:46:05.002Z,82.20
2022-10-13T07:49:48.977Z,81.90
2022-10-13T07:53:35.000Z,81.80
2022-10-13T07:57:17.096Z,81.70
2022-10-13T08:01:03.901Z,81.50
2022-10-13T08:04:46.077Z,81.30
2022-10-13T08:08:28.445Z,81.10
2022-10-13T08:12:10.932Z,80.80
2022-10-13T08:15:54.034Z,80.50
2022-10-13T08:19:37.154Z,80.20
2022-10-13T08:23:19.529Z,79.90
2022-10-13T08:27:02.194Z,79.60
2022-10-13T08:30:44.678Z,79.40
2022-10-13T08:34:26.808Z,79.40
2022-10-13T08:38:09.430Z,79.30
2022-10-13T08:41:52.119Z,79.10
2022-10-13T08:45:42.349Z,79.10
2022-10-13T08:49:24.450Z,78.70
2022-10-13T08:53:11.374Z,78.40
2022-10-13T08:56:53.774Z,78.20
2022-10-13T09:00:38.515Z,78.40
2022-10-13T09:04:41.480Z,78.20
2022-10-13T09:08:27.709Z,77.40
2022-10-13T09:12:10.944Z,77.50
2022-10-13T09:15:52.842Z,77.60
2022-10-13T09:19:36.614Z,77.50
2022-10-13T09:23:23.336Z,77.40
2022-10-13T09:27:13.605Z,76.80
2022-10-13T09:31:11.724Z,76.80
2022-10-13T09:35:22.586Z,76.10
2022-10-13T09:39:16.031Z,75.70
2022-10-13T09:43:00.081Z,76.20
2022-10-13T09:46:51.075Z,76.20
2022-10-13T09:50:35.833Z,76.00
2022-10-13T09:54:36.401Z,75.80
2022-10-13T09:58:31.626Z,74.60
2022-10-13T10:02:25.038Z,73.70
2022-10-13T10:06:14.778Z,73.50
2022-10-13T10:10:01.966Z,72.70
2022-10-13T10:13:44.086Z,70.50
2022-10-13T10:17:41.196Z,68.50
2022-10-13T10:21:26.229Z,64.20
2022-10-13T10:25:42.729Z,63.40
2022-10-13T10:29:59.904Z,60.60
2022-10-13T10:33:47.818Z,60.70
2022-10-13T10:37:55.114Z,63.60
2022-10-13T10:42:07.532Z,62.10
2022-10-13T10:45:49.812Z,61.50
2022-10-13T10:49:35.062Z,63.10
2022-10-13T10:53:48.705Z,63.20
2022-10-13T10:57:39.188Z,61.60
2022-10-13T11:01:42.534Z,61.90
2022-10-13T11:05:24.548Z,60.80
2022-10-13T11:09:06.926Z,61.00
2022-10-13T11:13:08.904Z,59.10
2022-10-13T11:17:20.244Z,58.30
2022-10-13T11:21:02.354Z,58.20
2022-10-13T11:24:53.049Z,59.80
2022-10-13T11:28:41.332Z,59.50
2022-10-13T11:32:31.025Z,59.80
2022-10-13T11:36:50.078Z,59.80
2022-10-13T11:41:03.289Z,58.40
2022-10-13T11:44:57.669Z,58.00
2022-10-13T11:49:12.887Z,58.10
2022-10-13T11:53:06.880Z,58.90
2022-10-13T11:56:52.123Z,59.50
2022-10-13T12:00:34.437Z,60.10
2022-10-13T12:04:16.512Z,60.30
2022-10-13T12:08:03.631Z,60.40
2022-10-13T12:11:58.870Z,60.20
2022-10-13T12:15:48.459Z,60.40
2022-10-13T12:19:31.902Z,61.10
2022-10-13T12:23:17.983Z,61.50
2022-10-13T12:27:09.641Z,61.90
2022-10-13T12:30:54.544Z,62.10
2022-10-13T12:34:38.840Z,62.10
2022-10-13T12:38:22.406Z,62.10
2022-10-13T12:42:07.831Z,61.90
2022-10-13T12:45:49.711Z,61.90
2022-10-13T12:49:32.759Z,60.90
2022-10-13T12:53:25.979Z,57.80
2022-10-13T12:57:19.855Z,53.60
2022-10-13T13:01:13.859Z,51.00
2022-10-13T13:04:56.430Z,49.30
2022-10-13T13:08:38.809Z,49.00
2022-10-13T13:12:23.613Z,47.30
2022-10-13T13:16:22.104Z,45.70
2022-10-13T13:20:33.090Z,47.40
2022-10-13T13:24:28.283Z,41.50
2022-10-13T13:28:17.721Z,42.50
2022-10-13T13:31:59.813Z,40.70
2022-10-13T13:35:41.965Z,39.50
2022-10-13T13:39:27.235Z,38.90
2022-10-13T13:43:12.211Z,38.40
2022-10-13T13:46:57.960Z,38.20
2022-10-13T13:50:40.339Z,37.70
2022-10-13T13:54:22.200Z,37.60
2022-10-13T13:58:04.262Z,37.10
2022-10-13T14:01:46.151Z,37.10
2022-10-13T14:05:28.232Z,37.50
2022-10-13T14:09:10.085Z,37.70
2022-10-13T14:12:52.834Z,38.60
2022-10-13T14:16:37.025Z,39.10
2022-10-13T14:20:19.027Z,39.10
2022-10-13T14:24:00.915Z,40.90
2022-10-13T14:27:42.785Z,42.50
2022-10-13T14:31:25.092Z,44.00
2022-10-13T14:35:07.829Z,45.40
2022-10-13T14:38:51.811Z,46.70
2022-10-13T14:42:33.894Z,47.60
2022-10-13T14:46:15.790Z,48.60
2022-10-13T14:49:58.011Z,49.40
2022-10-13T14:53:43.203Z,50.10
2022-10-13T14:57:28.958Z,50.60
2022-10-13T15:01:16.745Z,51.00
2022-10-13T15:05:01.880Z,51.40
2022-10-13T15:08:48.844Z,52.20
2022-10-13T15:12:34.281Z,52.60
2022-10-13T15:16:22.184Z,52.90
2022-10-13T15:20:17.418Z,53.50
2022-10-13T15:24:01.563Z,53.90
2022-10-13T15:27:43.605Z,54.30
2022-10-13T15:31:25.907Z,54.50
2022-10-13T15:35:08.272Z,55.00
2022-10-13T15:38:51.384Z,55.40
2022-10-13T15:42:33.340Z,55.70
2022-10-13T15:46:21.262Z,56.10
2022-10-13T15:50:03.469Z,56.30
2022-10-13T15:53:46.806Z,56.60
2022-10-13T15:57:30.236Z,56.90
2022-10-13T16:01:13.576Z,57.00
2022-10-13T16:04:56.798Z,57.40
2022-10-13T16:08:39.975Z,57.70
2022-10-13T16:12:24.356Z,58.00
2022-10-13T16:16:06.602Z,58.30
2022-10-13T16:19:48.476Z,58.50
2022-10-13T16:23:30.342Z,58.80
2022-10-13T16:27:12.245Z,59.00
2022-10-13T16:30:54.160Z,59.10
2022-10-13T16:34:36.311Z,59.40
2022-10-13T16:38:18.286Z,59.70
2022-10-13T16:42:00.241Z,59.90
2022-10-13T16:45:59.324Z,60.20
2022-10-13T16:49:41.998Z,60.60
2022-10-13T16:53:24.146Z,60.90
2022-10-13T16:57:05.990Z,61.10
2022-10-13T17:00:47.967Z,61.50
2022-10-13T17:04:31.031Z,61.70
2022-10-13T17:08:12.835Z,62.00
2022-10-13T17:11:54.670Z,62.30
2022-10-13T17:15:36.441Z,62.80
2022-10-13T17:19:18.364Z,63.00
2022-10-13T17:23:00.224Z,63.30
2022-10-13T17:26:42.186Z,63.80
2022-10-13T17:30:24.165Z,64.10
2022-10-13T17:34:06.479Z,64.40
2022-10-13T17:37:50.168Z,64.70
2022-10-13T17:41:32.400Z,65.10
2022-10-13T17:45:14.265Z,65.30
2022-10-13T17:48:57.557Z,65.60
2022-10-13T17:52:39.501Z,65.90
2022-10-13T17:56:23.416Z,66.20
2022-10-13T18:00:06.303Z,66.50
2022-10-13T18:03:51.431Z,66.80
2022-10-13T18:07:33.740Z,67.20
2022-10-13T18:11:17.713Z,67.50
2022-10-13T18:14:59.633Z,68.00
2022-10-13T18:18:43.844Z,68.00
2022-10-13T18:22:25.679Z,68.30
2022-10-13T18:26:12.106Z,68.50
2022-10-13T18:29:53.918Z,68.80
2022-10-13T18:33:36.462Z,68.90
2022-10-13T18:37:18.545Z,69.10
2022-10-13T18:41:00.793Z,69.20
2022-10-13T18:44:42.615Z,69.40
2022-10-13T18:48:24.527Z,69.60
2022-10-13T18:52:06.306Z,69.70
2022-10-13T18:55:48.502Z,69.90
2022-10-13T18:59:30.447Z,70.00
2022-10-13T19:03:13.369Z,70.20
2022-10-13T19:06:55.203Z,70.30
2022-10-13T19:10:37.212Z,70.60
2022-10-13T19:14:19.289Z,70.80
2022-10-13T19:18:01.335Z,70.90
2022-10-13T19:21:43.180Z,71.00
2022-10-13T19:25:25.676Z,71.10
2022-10-13T19:29:10.271Z,71.20
2022-10-13T19:32:52.325Z,71.30
2022-10-13T19:36:39.099Z,71.40
2022-10-13T19:40:21.066Z,71.60
2022-10-13T19:44:03.118Z,71.70
2022-10-13T19:47:45.009Z,71.80
2022-10-13T19:51:26.847Z,71.80
2022-10-13T19:55:09.445Z,71.90
2022-10-13T19:58:52.366Z,72.00
2022-10-13T20:02:34.288Z,72.10
2022-10-13T20:06:17.855Z,72.30
2022-10-13T20:09:59.738Z,72.30
2022-10-13T20:13:44.959Z,72.50
2022-10-13T20:17:26.811Z,72.60
2022-10-13T20:21:11.747Z,72.60
2022-10-13T20:24:53.607Z,72.70
2022-10-13T20:28:42.712Z,72.70
2022-10-13T20:32:25.118Z,72.80
2022-10-13T20:36:10.507Z,72.80
2022-10-13T20:39:52.568Z,72.90
2022-10-13T20:43:34.936Z,73.00
2022-10-13T20:47:16.726Z,73.00
2022-10-13T20:51:02.954Z,73.10
2022-10-13T20:54:44.782Z,73.50
2022-10-13T20:58:27.560Z,73.30
2022-10-13T21:02:13.228Z,73.30
2022-10-13T21:05:55.787Z,73.80
2022-10-13T21:09:37.715Z,73.60
2022-10-13T21:13:19.683Z,73.60
2022-10-13T21:17:02.001Z,73.70
2022-10-13T21:20:44.113Z,73.70
2022-10-13T21:24:25.965Z,73.80
2022-10-13T21:28:07.781Z,74.00
2022-10-13T21:31:49.601Z,74.10
2022-10-13T21:35:31.400Z,74.20
2022-10-13T21:39:13.555Z,74.30
2022-10-13T21:42:55.567Z,74.30
2022-10-13T21:46:37.405Z,74.30
2022-10-13T21:50:19.216Z,74.40
2022-10-13T21:54:10.782Z,74.40
2022-10-13T21:57:52.632Z,75.10
2022-10-13T22:01:34.859Z,74.40
2022-10-13T22:05:16.783Z,74.50
2022-10-13T22:09:00.760Z,74.50
2022-10-13T22:12:42.588Z,74.50
2022-10-13T22:16:34.578Z,74.50
2022-10-13T22:20:16.468Z,75.20
2022-10-13T22:24:01.048Z,74.80
2022-10-13T22:27:42.866Z,75.00
2022-10-13T22:31:25.436Z,74.90
2022-10-13T22:35:07.671Z,75.00
2022-10-13T22:38:51.416Z,75.10
2022-10-13T22:42:33.238Z,75.30
2022-10-13T22:46:17.524Z,75.40
2022-10-13T22:49:59.351Z,75.50
2022-10-13T22:53:41.285Z,75.60
2022-10-13T22:57:23.442Z,75.70
2022-10-13T23:01:10.267Z,75.80
2022-10-13T23:04:52.227Z,76.10
2022-10-13T23:08:35.012Z,75.90
2022-10-13T23:12:16.950Z,75.90
2022-10-13T23:16:11.441Z,76.00
2022-10-13T23:19:53.915Z,76.90
2022-10-13T23:23:36.046Z,76.00
2022-10-13T23:27:17.852Z,76.00
2022-10-13T23:31:01.696Z,76.10
2022-10-13T23:34:43.553Z,76.20
2022-10-13T23:38:26.585Z,76.30
2022-10-13T23:42:09.664Z,76.30
2022-10-13T23:45:51.460Z,76.40
2022-10-13T23:49:33.298Z,76.40
2022-10-13T23:53:15.169Z,76.50
2022-10-13T23:56:57.254Z,76.60
